createdAt,value
2019-05-01T00:01:35.238Z,31.33
2019-05-01T00:03:28.436Z,31.87
2019-05-01T00:05:19.082Z,30.70
2019-05-01T00:06:56.072Z,34.03
2019-05-01T00:08:30.852Z,31.77
2019-05-01T00:10:06.920Z,32.33
2019-05-01T00:11:42.057Z,32.37
2019-05-01T00:13:17.000Z,32.33
2019-05-01T00:14:51.852Z,30.30
2019-05-01T00:16:26.496Z,31.73
2019-05-01T00:18:01.345Z,32.13
2019-05-01T00:19:35.997Z,31.33
2019-05-01T00:21:10.786Z,32.00
2019-05-01T00:22:45.428Z,32.87
2019-05-01T00:24:20.094Z,33.13
2019-05-01T00:25:54.909Z,33.37
2019-05-01T00:27:29.701Z,33.13
2019-05-01T00:29:04.884Z,33.87
2019-05-01T00:30:39.646Z,32.43
2019-05-01T00:32:14.365Z,32.50
2019-05-01T00:33:49.053Z,33.43
2019-05-01T00:35:23.782Z,34.23
2019-05-01T00:36:58.425Z,34.83
2019-05-01T00:38:33.094Z,34.20
2019-05-01T00:40:08.112Z,34.27
2019-05-01T00:41:42.838Z,35.60
2019-05-01T00:43:17.575Z,35.77
2019-05-01T00:44:52.320Z,35.67
2019-05-01T00:46:26.947Z,34.63
2019-05-01T00:48:01.598Z,35.70
2019-05-01T00:49:36.254Z,38.50
2019-05-01T00:51:10.985Z,36.73
2019-05-01T00:52:45.629Z,37.10
2019-05-01T00:54:20.697Z,37.80
2019-05-01T00:56:20.264Z,36.63
2019-05-01T00:58:16.728Z,37.57
2019-05-01T01:00:19.687Z,36.60
2019-05-01T01:02:17.195Z,35.80
2019-05-01T01:03:52.229Z,37.40
2019-05-01T01:05:32.920Z,37.50
2019-05-01T01:07:07.883Z,37.73
2019-05-01T01:08:42.530Z,37.87
2019-05-01T01:10:17.326Z,36.30
2019-05-01T01:11:52.051Z,38.40
2019-05-01T01:13:26.746Z,36.07
2019-05-01T01:15:01.684Z,36.97
2019-05-01T01:16:36.506Z,35.37
2019-05-01T01:18:11.163Z,35.03
2019-05-01T01:19:45.807Z,35.37
2019-05-01T01:21:20.641Z,37.37
2019-05-01T01:22:55.376Z,36.03
2019-05-01T01:24:30.509Z,35.87
2019-05-01T01:26:05.231Z,36.87
2019-05-01T01:27:39.975Z,37.57
2019-05-01T01:29:15.792Z,37.13
2019-05-01T01:30:56.566Z,35.43
2019-05-01T01:32:27.138Z,37.23
2019-05-01T01:34:01.859Z,35.70
2019-05-01T01:35:36.584Z,36.00
2019-05-01T01:37:11.221Z,35.50
2019-05-01T01:38:45.969Z,35.97
2019-05-01T01:40:20.683Z,35.97
2019-05-01T01:41:56.790Z,35.53
2019-05-01T01:43:49.297Z,36.17
2019-05-01T01:45:31.029Z,36.00
2019-05-01T01:47:05.949Z,34.37
2019-05-01T01:48:40.864Z,36.37
2019-05-01T01:50:15.510Z,35.40
2019-05-01T01:51:50.345Z,34.83
2019-05-01T01:53:25.279Z,35.80
2019-05-01T01:54:59.968Z,34.63
2019-05-01T01:56:34.700Z,33.23
2019-05-01T01:58:09.451Z,34.43
2019-05-01T01:59:44.609Z,33.57
2019-05-01T02:01:34.599Z,32.90
2019-05-01T02:03:09.512Z,33.07
2019-05-01T02:05:12.285Z,33.33
2019-05-01T02:06:47.898Z,32.77
2019-05-01T02:08:22.617Z,33.57
2019-05-01T02:09:57.351Z,34.17
2019-05-01T02:11:32.483Z,34.20
2019-05-01T02:13:07.281Z,33.57
2019-05-01T02:14:42.105Z,35.43
2019-05-01T02:16:16.855Z,33.40
2019-05-01T02:17:51.515Z,33.30
2019-05-01T02:19:26.162Z,34.33
2019-05-01T02:21:00.831Z,35.50
2019-05-01T02:22:35.496Z,34.30
2019-05-01T02:24:10.217Z,33.33
2019-05-01T02:25:45.231Z,34.87
2019-05-01T02:27:25.676Z,36.17
2019-05-01T02:29:07.655Z,34.40
2019-05-01T02:30:45.758Z,33.67
2019-05-01T02:32:22.357Z,34.43
2019-05-01T02:33:57.334Z,32.37
2019-05-01T02:35:32.551Z,31.77
2019-05-01T02:37:08.737Z,32.13
2019-05-01T02:38:43.877Z,32.30
2019-05-01T02:40:59.197Z,32.10
2019-05-01T02:42:34.729Z,31.97
2019-05-01T02:44:15.173Z,31.30
2019-05-01T02:45:55.437Z,30.70
2019-05-01T02:47:32.535Z,31.50
2019-05-01T02:49:11.542Z,30.70
2019-05-01T02:50:48.349Z,29.80
2019-05-01T02:52:25.029Z,29.80
2019-05-01T02:54:00.861Z,30.40
2019-05-01T02:55:41.722Z,29.77
2019-05-01T02:57:19.096Z,29.67
2019-05-01T02:58:55.582Z,30.10
2019-05-01T03:00:30.493Z,31.60
2019-05-01T03:02:05.225Z,29.57
2019-05-01T03:03:39.917Z,29.17
2019-05-01T03:05:14.641Z,30.13
2019-05-01T03:06:49.565Z,30.27
2019-05-01T03:08:24.373Z,30.87
2019-05-01T03:09:59.459Z,30.37
2019-05-01T03:11:35.165Z,30.67
2019-05-01T03:13:10.001Z,29.93
2019-05-01T03:14:46.121Z,28.60
2019-05-01T03:16:21.435Z,28.47
2019-05-01T03:18:11.187Z,27.53
2019-05-01T03:19:51.302Z,26.23
2019-05-01T03:21:34.361Z,26.83
2019-05-01T03:23:28.136Z,25.97
2019-05-01T03:25:03.368Z,23.27
2019-05-01T03:26:38.482Z,25.30
2019-05-01T03:28:13.362Z,23.50
2019-05-01T03:29:48.282Z,23.40
2019-05-01T03:31:23.032Z,23.43
2019-05-01T03:32:57.785Z,23.53
2019-05-01T03:34:32.707Z,24.37
2019-05-01T03:36:07.638Z,22.37
2019-05-01T03:37:42.382Z,22.70
2019-05-01T03:39:18.704Z,23.27
2019-05-01T03:40:53.861Z,23.67
2019-05-01T03:42:28.852Z,22.37
2019-05-01T03:44:04.590Z,23.10
2019-05-01T03:45:39.597Z,23.73
2019-05-01T03:47:14.324Z,21.70
2019-05-01T03:48:49.142Z,22.40
2019-05-01T03:50:23.882Z,21.97
2019-05-01T03:51:58.861Z,23.30
2019-05-01T03:53:33.678Z,22.60
2019-05-01T03:55:08.500Z,24.10
2019-05-01T03:56:43.233Z,21.60
2019-05-01T03:58:18.434Z,22.43
2019-05-01T03:59:53.358Z,22.33
2019-05-01T04:01:44.388Z,20.63
2019-05-01T04:03:28.810Z,21.90
2019-05-01T04:05:04.113Z,21.90
2019-05-01T04:06:38.838Z,21.03
2019-05-01T04:08:13.647Z,21.70
2019-05-01T04:09:48.305Z,22.77
2019-05-01T04:11:23.333Z,22.37
2019-05-01T04:12:59.165Z,22.17
2019-05-01T04:14:34.126Z,23.00
2019-05-01T04:16:09.553Z,21.50
2019-05-01T04:17:49.315Z,20.97
2019-05-01T04:19:24.666Z,21.27
2019-05-01T04:20:59.369Z,20.77
2019-05-01T04:22:34.188Z,21.17
2019-05-01T04:24:08.862Z,21.07
2019-05-01T04:25:43.771Z,20.23
2019-05-01T04:27:26.841Z,20.70
2019-05-01T04:29:30.103Z,19.90
2019-05-01T04:31:26.910Z,20.27
2019-05-01T04:33:04.294Z,19.17
2019-05-01T04:34:44.655Z,20.33
2019-05-01T04:36:24.608Z,21.57
2019-05-01T04:37:59.683Z,20.80
2019-05-01T04:39:34.930Z,20.70
2019-05-01T04:41:09.580Z,19.33
2019-05-01T04:42:44.699Z,20.40
2019-05-01T04:44:19.434Z,20.10
2019-05-01T04:45:55.231Z,20.07
2019-05-01T04:47:30.039Z,20.40
2019-05-01T04:49:04.884Z,20.30
2019-05-01T04:50:39.606Z,20.30
2019-05-01T04:52:14.373Z,20.00
2019-05-01T04:53:49.090Z,19.87
2019-05-01T04:55:23.967Z,20.63
2019-05-01T04:56:58.862Z,19.77
2019-05-01T04:58:33.586Z,20.37
2019-05-01T05:00:08.291Z,19.97
2019-05-01T05:01:57.135Z,19.43
2019-05-01T05:03:31.120Z,20.60
2019-05-01T05:05:06.276Z,19.00
2019-05-01T05:06:41.092Z,20.10
2019-05-01T05:08:16.028Z,21.10
2019-05-01T05:09:50.848Z,19.43
2019-05-01T05:11:27.889Z,19.67
2019-05-01T05:13:15.260Z,21.10
2019-05-01T05:14:53.823Z,20.23
2019-05-01T05:16:51.408Z,20.50
2019-05-01T05:18:26.133Z,20.73
2019-05-01T05:20:00.824Z,20.93
2019-05-01T05:21:35.762Z,20.37
2019-05-01T05:23:10.687Z,20.10
2019-05-01T05:24:45.332Z,20.37
2019-05-01T05:26:20.138Z,21.93
2019-05-01T05:27:55.312Z,20.37
2019-05-01T05:29:30.021Z,22.23
2019-05-01T05:31:04.867Z,21.87
2019-05-01T05:32:41.078Z,21.13
2019-05-01T05:34:18.300Z,21.63
2019-05-01T05:35:53.764Z,21.13
2019-05-01T05:37:35.466Z,22.50
2019-05-01T05:39:16.902Z,21.07
2019-05-01T05:40:51.811Z,21.63
2019-05-01T05:42:26.745Z,21.43
2019-05-01T05:44:01.866Z,22.10
2019-05-01T05:45:36.721Z,21.43
2019-05-01T05:47:11.424Z,20.03
2019-05-01T05:48:46.452Z,20.60
2019-05-01T05:50:22.871Z,21.60
2019-05-01T05:52:17.676Z,21.23
2019-05-01T05:53:54.201Z,20.70
2019-05-01T05:55:34.437Z,20.47
2019-05-01T05:57:18.133Z,19.53
2019-05-01T05:58:56.177Z,20.10
2019-05-01T06:00:45.881Z,20.37
2019-05-01T06:02:40.283Z,20.30
2019-05-01T06:04:27.181Z,20.37
2019-05-01T06:06:07.882Z,20.03
2019-05-01T06:08:05.224Z,21.17
2019-05-01T06:09:49.673Z,20.90
2019-05-01T06:11:53.692Z,20.50
2019-05-01T06:13:57.490Z,19.43
2019-05-01T06:15:42.694Z,20.30
2019-05-01T06:17:42.354Z,20.57
2019-05-01T06:19:39.302Z,21.53
2019-05-01T06:21:20.394Z,22.67
2019-05-01T06:23:11.010Z,22.47
2019-05-01T06:24:48.859Z,21.43
2019-05-01T06:26:31.951Z,21.67
2019-05-01T06:28:04.662Z,22.83
2019-05-01T06:29:39.485Z,22.60
2019-05-01T06:31:23.289Z,21.23
2019-05-01T06:32:55.928Z,22.13
2019-05-01T06:34:30.580Z,21.60
2019-05-01T06:36:08.768Z,22.70
2019-05-01T06:38:03.512Z,22.50
2019-05-01T06:39:38.288Z,22.20
2019-05-01T06:41:13.551Z,22.57
2019-05-01T06:42:50.142Z,21.93
2019-05-01T06:44:39.133Z,21.57
2019-05-01T06:46:38.721Z,21.83
2019-05-01T06:48:17.785Z,22.23
2019-05-01T06:50:13.709Z,21.53
2019-05-01T06:51:55.179Z,22.67
2019-05-01T06:53:29.924Z,21.83
2019-05-01T06:55:05.114Z,20.83
2019-05-01T06:56:40.648Z,22.20
2019-05-01T06:58:20.362Z,23.33
2019-05-01T06:59:51.820Z,23.97
2019-05-01T07:01:26.650Z,22.80
2019-05-01T07:03:06.021Z,23.00
2019-05-01T07:04:39.669Z,23.40
2019-05-01T07:06:14.691Z,22.93
2019-05-01T07:07:53.146Z,23.33
2019-05-01T07:09:28.028Z,24.83
2019-05-01T07:11:05.573Z,25.10
2019-05-01T07:12:40.413Z,24.50
2019-05-01T07:14:16.207Z,24.37
2019-05-01T07:15:51.816Z,22.77
2019-05-01T07:17:26.651Z,23.37
2019-05-01T07:19:06.004Z,23.37
2019-05-01T07:20:51.348Z,23.80
2019-05-01T07:22:26.995Z,22.73
2019-05-01T07:24:01.808Z,23.70
2019-05-01T07:25:39.346Z,23.40
2019-05-01T07:27:13.030Z,24.17
2019-05-01T07:28:49.322Z,24.33
2019-05-01T07:30:41.593Z,22.03
2019-05-01T07:32:16.364Z,21.90
2019-05-01T07:33:52.370Z,22.53
2019-05-01T07:35:27.492Z,22.80
2019-05-01T07:37:02.719Z,22.00
2019-05-01T07:38:40.474Z,21.40
2019-05-01T07:40:15.480Z,21.17
2019-05-01T07:41:50.231Z,21.53
2019-05-01T07:43:47.169Z,22.70
2019-05-01T07:45:39.044Z,20.87
2019-05-01T07:47:25.866Z,21.60
2019-05-01T07:49:01.352Z,20.50
2019-05-01T07:50:36.251Z,21.10
2019-05-01T07:52:12.579Z,20.07
2019-05-01T07:53:47.738Z,20.00
2019-05-01T07:55:36.071Z,18.77
2019-05-01T07:57:10.831Z,17.37
2019-05-01T07:58:47.524Z,18.87
2019-05-01T08:00:41.499Z,17.63
2019-05-01T08:02:16.272Z,17.93
2019-05-01T08:03:50.915Z,16.40
2019-05-01T08:05:25.638Z,17.17
2019-05-01T08:07:00.462Z,16.80
2019-05-01T08:08:39.803Z,16.60
2019-05-01T08:10:12.890Z,15.90
2019-05-01T08:11:47.561Z,16.47
2019-05-01T08:13:22.215Z,16.20
2019-05-01T08:14:56.876Z,14.47
2019-05-01T08:16:31.632Z,14.80
2019-05-01T08:18:16.417Z,14.30
2019-05-01T08:19:58.605Z,14.60
2019-05-01T08:21:46.281Z,14.50
2019-05-01T08:23:21.030Z,14.30
2019-05-01T08:24:58.644Z,12.97
2019-05-01T08:26:32.145Z,12.33
2019-05-01T08:28:18.914Z,13.20
2019-05-01T08:30:12.810Z,11.77
2019-05-01T08:31:58.729Z,11.97
2019-05-01T08:33:54.203Z,11.73
2019-05-01T08:35:31.740Z,11.83
2019-05-01T08:37:06.600Z,12.23
2019-05-01T08:38:41.442Z,11.00
2019-05-01T08:40:20.495Z,10.97
2019-05-01T08:41:52.754Z,11.30
2019-05-01T08:43:27.387Z,11.13
2019-05-01T08:45:42.385Z,12.07
2019-05-01T08:47:27.569Z,11.53
2019-05-01T08:49:42.247Z,10.90
2019-05-01T08:51:16.182Z,11.30
2019-05-01T08:52:50.911Z,11.00
2019-05-01T08:54:29.013Z,12.00
2019-05-01T08:56:01.895Z,11.43
2019-05-01T08:57:39.294Z,12.50
2019-05-01T08:59:13.376Z,11.87
2019-05-01T09:00:48.036Z,12.00
2019-05-01T09:02:22.668Z,12.03
2019-05-01T09:03:57.403Z,12.37
2019-05-01T09:05:33.895Z,11.63
2019-05-01T09:07:08.469Z,12.17
2019-05-01T09:08:43.111Z,12.47
2019-05-01T09:10:21.751Z,12.63
2019-05-01T09:11:54.743Z,13.10
2019-05-01T09:13:29.527Z,12.60
2019-05-01T09:15:07.168Z,13.27
2019-05-01T09:16:41.199Z,12.30
2019-05-01T09:18:18.730Z,12.67
2019-05-01T09:19:52.199Z,12.07
2019-05-01T09:21:27.834Z,13.13
2019-05-01T09:23:02.556Z,13.13
2019-05-01T09:24:37.209Z,12.23
2019-05-01T09:26:23.258Z,12.97
2019-05-01T09:28:05.946Z,12.40
2019-05-01T09:29:46.902Z,11.87
2019-05-01T09:31:24.252Z,12.00
2019-05-01T09:32:59.016Z,12.33
2019-05-01T09:34:33.833Z,12.60
2019-05-01T09:36:08.480Z,12.20
2019-05-01T09:37:43.204Z,12.60
2019-05-01T09:39:19.583Z,12.33
2019-05-01T09:40:54.607Z,11.87
2019-05-01T09:42:29.327Z,12.17
2019-05-01T09:44:05.911Z,12.67
2019-05-01T09:45:40.715Z,11.53
2019-05-01T09:47:15.452Z,12.70
2019-05-01T09:48:50.207Z,11.97
2019-05-01T09:50:25.881Z,12.50
2019-05-01T09:52:23.290Z,11.63
2019-05-01T09:54:05.611Z,12.10
2019-05-01T09:55:47.905Z,11.73
2019-05-01T09:57:22.557Z,12.50
2019-05-01T09:58:57.218Z,12.57
2019-05-01T10:00:32.829Z,12.47
2019-05-01T10:02:09.119Z,13.20
2019-05-01T10:03:44.932Z,11.83
2019-05-01T10:05:28.616Z,12.00
2019-05-01T10:06:56.197Z,11.97
2019-05-01T10:08:34.835Z,11.83
2019-05-01T10:10:07.914Z,12.37
2019-05-01T10:11:42.971Z,12.47
2019-05-01T10:13:22.228Z,12.60
2019-05-01T10:14:54.026Z,13.00
2019-05-01T10:16:29.680Z,12.50
2019-05-01T10:18:04.350Z,12.63
2019-05-01T10:19:39.014Z,12.70
2019-05-01T10:21:13.730Z,12.27
2019-05-01T10:22:48.457Z,12.90
2019-05-01T10:24:23.132Z,13.07
2019-05-01T10:25:59.432Z,13.70
2019-05-01T10:27:37.388Z,13.90
2019-05-01T10:29:30.055Z,14.13
2019-05-01T10:31:11.879Z,14.07
2019-05-01T10:35:42.462Z,14.50
2019-05-01T10:37:08.721Z,14.47
2019-05-01T10:38:44.951Z,15.13
2019-05-01T10:40:22.326Z,14.37
2019-05-01T10:41:56.340Z,14.73
2019-05-01T10:43:30.994Z,14.57
2019-05-01T10:45:06.021Z,15.83
2019-05-01T10:46:40.687Z,14.87
2019-05-01T10:48:15.333Z,16.23
2019-05-01T10:49:50.075Z,15.80
2019-05-01T10:51:24.816Z,15.90
2019-05-01T10:52:59.508Z,16.30
2019-05-01T10:54:34.163Z,15.87
2019-05-01T10:56:08.917Z,16.57
2019-05-01T10:59:55.998Z,15.13
2019-05-01T11:01:38.294Z,17.10
2019-05-01T11:03:13.055Z,17.47
2019-05-01T11:04:47.790Z,17.53
2019-05-01T11:06:22.579Z,17.70
2019-05-01T11:07:57.175Z,17.50
2019-05-01T11:09:31.845Z,16.90
2019-05-01T11:11:06.484Z,17.80
2019-05-01T11:12:41.162Z,17.17
2019-05-01T11:14:15.904Z,17.83
2019-05-01T11:15:50.557Z,17.90
2019-05-01T11:17:25.294Z,18.53
2019-05-01T11:18:59.989Z,18.47
2019-05-01T11:20:34.637Z,18.20
2019-05-01T11:22:09.300Z,19.67
2019-05-01T11:23:44.018Z,18.40
2019-05-01T11:25:20.485Z,18.80
2019-05-01T11:26:55.214Z,18.50
2019-05-01T11:28:29.882Z,19.23
2019-05-01T11:30:05.650Z,19.50
2019-05-01T11:32:02.197Z,19.40
2019-05-01T11:33:54.613Z,19.97
2019-05-01T11:35:48.348Z,18.60
2019-05-01T11:37:42.117Z,18.97
2019-05-01T11:39:26.090Z,19.03
2019-05-01T11:41:04.467Z,18.17
2019-05-01T11:42:39.114Z,18.80
2019-05-01T11:44:13.784Z,19.10
2019-05-01T11:45:48.545Z,19.13
2019-05-01T11:47:23.261Z,20.47
2019-05-01T11:48:57.913Z,21.43
2019-05-01T11:50:32.550Z,19.47
2019-05-01T11:52:07.300Z,19.67
2019-05-01T11:53:41.990Z,18.77
2019-05-01T11:55:16.659Z,20.47
2019-05-01T11:56:51.349Z,19.07
2019-05-01T11:58:25.997Z,19.87
2019-05-01T12:00:00.718Z,18.80
2019-05-01T12:01:35.441Z,17.97
2019-05-01T12:03:10.100Z,20.10
2019-05-01T12:04:44.746Z,18.53
2019-05-01T12:06:22.938Z,18.60
2019-05-01T12:07:56.103Z,17.57
2019-05-01T12:09:30.774Z,16.23
2019-05-01T12:11:06.876Z,17.70
2019-05-01T12:12:41.551Z,17.97
2019-05-01T12:14:16.219Z,16.03
2019-05-01T12:15:57.078Z,16.50
2019-05-01T12:17:40.890Z,16.40
2019-05-01T12:19:15.599Z,16.50
2019-05-01T12:20:50.248Z,16.33
2019-05-01T12:22:24.925Z,16.23
2019-05-01T12:23:59.566Z,16.10
2019-05-01T12:25:34.254Z,16.00
2019-05-01T12:27:08.888Z,16.23
2019-05-01T12:28:44.685Z,15.60
2019-05-01T12:30:19.619Z,15.87
2019-05-01T12:31:54.262Z,15.97
2019-05-01T12:33:28.931Z,16.60
2019-05-01T12:35:03.757Z,15.53
2019-05-01T12:36:39.465Z,14.80
2019-05-01T12:38:14.182Z,14.03
2019-05-01T12:39:48.830Z,14.97
2019-05-01T12:41:44.085Z,15.30
2019-05-01T12:43:18.785Z,15.10
2019-05-01T12:44:53.429Z,15.50
2019-05-01T12:46:46.255Z,14.53
2019-05-01T12:48:35.121Z,14.53
2019-05-01T12:50:10.054Z,13.90
2019-05-01T12:51:46.345Z,13.53
2019-05-01T12:53:25.425Z,13.23
2019-05-01T12:55:05.324Z,13.60
2019-05-01T12:56:48.256Z,14.37
2019-05-01T12:58:23.033Z,13.03
2019-05-01T13:00:08.075Z,14.60
2019-05-01T13:01:34.141Z,14.57
2019-05-01T13:03:10.034Z,15.67
2019-05-01T13:04:44.700Z,14.33
2019-05-01T13:06:20.366Z,15.40
2019-05-01T13:07:55.238Z,14.70
2019-05-01T13:09:29.921Z,14.67
2019-05-01T13:11:04.831Z,14.47
2019-05-01T13:12:39.485Z,15.27
2019-05-01T13:14:14.147Z,15.07
2019-05-01T13:15:49.775Z,14.67
2019-05-01T13:17:25.213Z,15.23
2019-05-01T13:18:59.865Z,14.57
2019-05-01T13:20:34.539Z,14.53
2019-05-01T13:22:09.205Z,15.27
2019-05-01T13:23:43.877Z,14.50
2019-05-01T13:25:18.599Z,14.00
2019-05-01T13:27:06.196Z,14.93
2019-05-01T13:28:50.975Z,13.27
2019-05-01T13:30:37.841Z,14.43
2019-05-01T13:32:30.391Z,14.60
2019-05-01T13:34:05.318Z,14.30
2019-05-01T13:35:39.971Z,14.97
2019-05-01T13:37:14.619Z,14.50
2019-05-01T13:38:49.347Z,14.60
2019-05-01T13:40:24.059Z,14.87
2019-05-01T13:41:58.742Z,14.20
2019-05-01T13:43:33.418Z,15.33
2019-05-01T13:45:08.884Z,14.63
2019-05-01T13:46:43.557Z,15.37
2019-05-01T13:48:18.189Z,14.33
2019-05-01T13:49:52.927Z,14.23
2019-05-01T13:51:27.661Z,15.03
2019-05-01T13:53:02.316Z,16.10
2019-05-01T13:54:36.983Z,15.47
2019-05-01T13:56:11.723Z,15.17
2019-05-01T13:57:46.369Z,15.00
2019-05-01T13:59:21.040Z,15.30
2019-05-01T14:00:55.716Z,14.77
2019-05-01T14:02:30.419Z,14.00
2019-05-01T14:04:05.124Z,14.03
2019-05-01T14:05:41.178Z,14.47
2019-05-01T14:07:17.027Z,14.17
2019-05-01T14:08:52.789Z,14.23
2019-05-01T14:10:27.513Z,15.70
2019-05-01T14:12:02.180Z,15.17
2019-05-01T14:13:36.839Z,15.27
2019-05-01T14:15:11.991Z,15.50
2019-05-01T14:16:46.640Z,15.23
2019-05-01T14:18:21.394Z,13.83
2019-05-01T14:20:02.569Z,15.27
2019-05-01T14:21:45.954Z,14.80
2019-05-01T14:23:40.510Z,13.87
2019-05-01T14:25:15.306Z,14.97
2019-05-01T14:26:50.440Z,15.37
2019-05-01T14:28:25.379Z,16.07
2019-05-01T14:30:00.059Z,15.07
2019-05-01T14:31:34.718Z,14.80
2019-05-01T14:33:09.369Z,15.40
2019-05-01T14:34:44.033Z,14.30
2019-05-01T14:36:18.681Z,14.07
2019-05-01T14:37:53.368Z,14.13
2019-05-01T14:39:28.041Z,14.57
2019-05-01T14:41:02.690Z,13.87
2019-05-01T14:42:37.415Z,14.67
2019-05-01T14:44:12.154Z,15.30
2019-05-01T14:45:46.823Z,14.20
2019-05-01T14:47:21.483Z,14.63
2019-05-01T14:49:09.160Z,15.60
2019-05-01T14:50:43.802Z,14.90
2019-05-01T14:52:18.454Z,14.70
2019-05-01T14:53:53.475Z,15.23
2019-05-01T14:55:28.121Z,15.10
2019-05-01T14:57:02.805Z,14.70
2019-05-01T14:58:37.556Z,14.83
2019-05-01T15:00:12.840Z,14.73
2019-05-01T15:01:47.721Z,14.97
2019-05-01T15:03:22.406Z,14.37
2019-05-01T15:04:57.129Z,16.03
2019-05-01T15:06:31.798Z,14.87
2019-05-01T15:08:06.519Z,16.30
2019-05-01T15:09:41.185Z,14.67
2019-05-01T15:11:15.851Z,15.70
2019-05-01T15:12:52.401Z,15.80
2019-05-01T15:14:48.832Z,15.03
2019-05-01T15:16:31.542Z,15.30
2019-05-01T15:18:11.616Z,14.40
2019-05-01T15:19:50.771Z,14.30
2019-05-01T15:21:25.516Z,15.40
2019-05-01T15:23:00.190Z,16.00
2019-05-01T15:24:34.941Z,15.17
2019-05-01T15:26:09.630Z,14.90
2019-05-01T15:27:44.279Z,15.10
2019-05-01T15:29:18.917Z,15.43
2019-05-01T15:30:53.749Z,16.37
2019-05-01T15:32:28.466Z,15.77
2019-05-01T15:34:03.337Z,16.37
2019-05-01T15:35:38.079Z,16.27
2019-05-01T15:37:12.747Z,15.07
2019-05-01T15:38:47.703Z,15.70
2019-05-01T15:40:43.596Z,15.53
2019-05-01T15:42:40.918Z,16.57
2019-05-01T15:44:19.631Z,15.23
2019-05-01T15:45:54.382Z,16.57
2019-05-01T15:47:29.036Z,15.93
2019-05-01T15:49:07.553Z,15.40
2019-05-01T15:50:44.743Z,16.23
2019-05-01T15:52:18.549Z,15.33
2019-05-01T15:53:53.218Z,16.03
2019-05-01T15:55:27.913Z,15.67
2019-05-01T15:57:02.570Z,15.60
2019-05-01T15:58:37.251Z,15.80
2019-05-01T16:00:15.146Z,15.67
2019-05-01T16:01:49.948Z,16.60
2019-05-01T16:03:24.613Z,16.53
2019-05-01T16:04:59.284Z,16.07
2019-05-01T16:06:33.945Z,16.23
2019-05-01T16:08:09.791Z,16.13
2019-05-01T16:09:44.872Z,16.17
2019-05-01T16:11:41.427Z,17.10
2019-05-01T16:13:16.133Z,17.33
2019-05-01T16:14:51.692Z,16.73
2019-05-01T16:16:26.413Z,16.00
2019-05-01T16:18:01.172Z,15.73
2019-05-01T16:19:35.821Z,16.73
2019-05-01T16:21:10.484Z,16.20
2019-05-01T16:22:45.164Z,17.23
2019-05-01T16:24:19.907Z,17.17
2019-05-01T16:25:54.586Z,16.93
2019-05-01T16:27:29.293Z,15.97
2019-05-01T16:29:04.026Z,16.20
2019-05-01T16:30:38.667Z,17.17
2019-05-01T16:32:13.332Z,17.30
2019-05-01T16:33:48.062Z,16.97
2019-05-01T16:35:22.769Z,16.43
2019-05-01T16:36:57.546Z,16.70
2019-05-01T16:38:47.887Z,17.37
2019-05-01T16:40:45.304Z,17.67
2019-05-01T16:42:21.506Z,16.87
2019-05-01T16:43:56.198Z,15.90
2019-05-01T16:45:30.823Z,16.77
2019-05-01T16:47:05.548Z,16.40
2019-05-01T16:48:41.390Z,16.60
2019-05-01T16:50:16.158Z,16.50
2019-05-01T16:51:50.824Z,16.40
2019-05-01T16:53:25.598Z,16.27
2019-05-01T16:55:00.471Z,15.93
2019-05-01T16:56:35.276Z,16.93
2019-05-01T16:58:13.398Z,16.33
2019-05-01T16:59:48.102Z,16.87
2019-05-01T17:01:34.066Z,15.60
2019-05-01T17:03:15.923Z,17.17
2019-05-01T17:05:18.350Z,16.40
2019-05-01T17:06:59.814Z,15.73
2019-05-01T17:08:40.974Z,16.23
2019-05-01T17:10:18.754Z,17.63
2019-05-01T17:11:53.422Z,16.40
2019-05-01T17:13:28.204Z,16.60
2019-05-01T17:15:03.544Z,16.77
2019-05-01T17:16:38.371Z,17.83
2019-05-01T17:18:13.932Z,16.73
2019-05-01T17:19:48.601Z,17.53
2019-05-01T17:21:23.251Z,17.03
2019-05-01T17:22:57.906Z,16.60
2019-05-01T17:24:32.615Z,18.23
2019-05-01T17:26:07.336Z,16.70
2019-05-01T17:27:42.092Z,17.90
2019-05-01T17:29:16.741Z,16.27
2019-05-01T17:30:56.540Z,15.13
2019-05-01T17:32:31.287Z,16.57
2019-05-01T17:34:05.951Z,16.83
2019-05-01T17:35:43.136Z,17.23
2019-05-01T17:37:18.012Z,16.80
2019-05-01T17:38:52.768Z,16.00
2019-05-01T17:40:27.469Z,16.77
2019-05-01T17:42:03.375Z,16.33
2019-05-01T17:43:38.120Z,17.10
2019-05-01T17:45:13.144Z,16.97
2019-05-01T17:46:48.660Z,16.63
2019-05-01T17:48:23.368Z,17.37
2019-05-01T17:49:58.044Z,16.13
2019-05-01T17:51:32.718Z,15.93
2019-05-01T17:53:07.551Z,16.80
2019-05-01T17:54:42.287Z,17.53
2019-05-01T17:56:21.858Z,17.40
2019-05-01T17:57:53.652Z,17.57
2019-05-01T17:59:28.386Z,16.47
2019-05-01T18:01:27.792Z,16.60
2019-05-01T18:03:08.100Z,16.73
2019-05-01T18:04:53.315Z,17.07
2019-05-01T18:06:30.619Z,17.33
2019-05-01T18:08:06.480Z,16.70
2019-05-01T18:09:41.170Z,16.33
2019-05-01T18:11:16.092Z,15.77
2019-05-01T18:12:50.800Z,16.70
2019-05-01T18:14:25.512Z,15.60
2019-05-01T18:16:00.232Z,16.43
2019-05-01T18:17:34.908Z,18.43
2019-05-01T18:19:10.414Z,17.80
2019-05-01T18:20:45.444Z,17.03
2019-05-01T18:22:45.159Z,17.10
2019-05-01T18:24:42.917Z,17.60
2019-05-01T18:26:30.613Z,17.77
2019-05-01T18:28:25.009Z,18.70
2019-05-01T18:30:01.582Z,16.37
2019-05-01T18:31:36.480Z,17.87
2019-05-01T18:33:11.260Z,18.33
2019-05-01T18:34:46.015Z,18.60
2019-05-01T18:36:24.530Z,18.30
2019-05-01T18:38:19.324Z,18.60
2019-05-01T18:39:54.328Z,17.33
2019-05-01T18:41:56.986Z,17.83
2019-05-01T18:43:32.068Z,18.83
2019-05-01T18:45:10.096Z,18.60
2019-05-01T18:46:44.971Z,17.73
2019-05-01T18:48:20.229Z,18.03
2019-05-01T18:49:54.894Z,18.60
2019-05-01T18:51:29.567Z,18.27
2019-05-01T18:53:06.867Z,17.93
2019-05-01T18:54:40.740Z,18.00
2019-05-01T18:56:15.464Z,17.50
2019-05-01T18:57:50.192Z,17.50
2019-05-01T18:59:24.943Z,18.23
2019-05-01T19:01:03.951Z,18.30
2019-05-01T19:02:38.971Z,19.17
2019-05-01T19:04:13.645Z,19.17
2019-05-01T19:05:48.435Z,19.30
2019-05-01T19:07:23.062Z,18.20
2019-05-01T19:08:57.912Z,18.97
2019-05-01T19:10:32.661Z,18.43
2019-05-01T19:12:09.391Z,18.17
2019-05-01T19:13:44.066Z,18.00
2019-05-01T19:15:18.784Z,18.50
2019-05-01T19:16:55.868Z,18.53
2019-05-01T19:18:30.521Z,19.07
2019-05-01T19:20:05.613Z,18.70
2019-05-01T19:21:41.820Z,18.40
2019-05-01T19:23:17.509Z,19.70
2019-05-01T19:24:52.255Z,19.10
2019-05-01T19:26:26.972Z,18.23
2019-05-01T19:28:12.194Z,19.07
2019-05-01T19:29:46.858Z,18.50
2019-05-01T19:31:21.591Z,17.83
2019-05-01T19:32:56.497Z,19.20
2019-05-01T19:34:31.127Z,17.53
2019-05-01T19:36:08.246Z,16.00
2019-05-01T19:37:42.592Z,14.23
2019-05-01T19:39:17.540Z,14.00
2019-05-01T19:40:52.297Z,14.77
2019-05-01T19:42:27.002Z,14.87
2019-05-01T19:44:01.623Z,13.63
2019-05-01T19:45:36.395Z,14.20
2019-05-01T19:47:11.130Z,14.50
2019-05-01T19:48:50.721Z,14.33
2019-05-01T19:50:22.270Z,14.70
2019-05-01T19:52:04.041Z,13.90
2019-05-01T19:53:46.455Z,14.67
2019-05-01T19:55:31.936Z,14.73
2019-05-01T19:57:06.865Z,13.57
2019-05-01T19:58:41.545Z,14.20
2019-05-01T20:00:22.909Z,14.17
2019-05-01T20:01:57.621Z,14.00
2019-05-01T20:03:36.127Z,14.77
2019-05-01T20:05:11.106Z,15.20
2019-05-01T20:06:45.627Z,14.63
2019-05-01T20:08:20.589Z,15.17
2019-05-01T20:09:56.954Z,15.77
2019-05-01T20:11:32.173Z,14.67
2019-05-01T20:13:11.815Z,15.07
2019-05-01T20:14:43.547Z,15.10
2019-05-01T20:16:18.900Z,15.63
2019-05-01T20:17:53.543Z,14.30
2019-05-01T20:19:28.474Z,15.43
2019-05-01T20:21:03.159Z,14.77
2019-05-01T20:22:38.019Z,15.00
2019-05-01T20:24:19.419Z,14.40
2019-05-01T20:25:55.919Z,15.87
2019-05-01T20:27:30.573Z,14.77
2019-05-01T20:29:07.783Z,14.60
2019-05-01T20:30:41.776Z,14.73
2019-05-01T20:32:21.023Z,14.23
2019-05-01T20:33:53.191Z,14.67
2019-05-01T20:35:28.367Z,15.27
2019-05-01T20:37:04.241Z,14.97
2019-05-01T20:38:38.887Z,14.73
2019-05-01T20:40:13.999Z,13.53
2019-05-01T20:41:48.718Z,15.43
2019-05-01T20:43:23.386Z,14.90
2019-05-01T20:45:05.643Z,15.03
2019-05-01T20:46:34.358Z,14.00
2019-05-01T20:48:09.022Z,14.03
2019-05-01T20:49:43.740Z,14.53
2019-05-01T20:51:20.125Z,13.80
2019-05-01T20:52:54.726Z,14.37
2019-05-01T20:54:29.463Z,14.70
2019-05-01T20:56:20.325Z,13.77
2019-05-01T20:58:14.082Z,14.83
2019-05-01T20:59:48.807Z,14.23
2019-05-01T21:01:24.369Z,14.70
2019-05-01T21:03:01.358Z,13.57